Bockoe — 5BRN4 — position and weather

sailwx.info

Track history (hours):
 
Tides and Currents Weather Stations Pressure Air Temp Water Temp Dewpoint Dewpoint Depression Visibility Wind Speed Wind Dir Waves Ship Positions

Bockoe

Last reported at 2017-Nov-18 07:21 UTC. Time now 2017-Nov-21 00:54 UTC.
Position N 55°13' E 018°45'.

Length 107 m; draft 4 m.

Type: Ship. MMSI: 212389000.

Date/timePositionNaut miles runAvg speedWind from/ knotsBaromVisibWave heightAir tempDewpointWater temp
2017-Nov-18 07:21N 55°13' E 018°45'411.0
2017-Nov-18 07:00N 55°11' E 018°39'611.0
2017-Nov-18 06:30N 55°09' E 018°30'511.1
2017-Nov-18 06:00N 55°07' E 018°21'611.2
2017-Nov-18 05:28N 55°04' E 018°12'21010.7
2017-Nov-17 09:46N 54°27' E 012°13'311.4
2017-Nov-17 09:30N 54°25' E 012°10'510.7
2017-Nov-17 09:00N 54°25' E 012°01'1510.6
2017-Nov-17 07:36N 54°28' E 011°35'110.8
2017-Nov-17 07:30N 54°28' E 011°34'510.7
2017-Nov-17 07:00N 54°31' E 011°26'510.9
2017-Nov-17 06:30N 54°33' E 011°17'510.7
2017-Nov-17 06:00N 54°35' E 011°09'510.6
2017-Nov-17 05:30N 54°38' E 011°01'510.8
2017-Nov-17 05:00N 54°41' E 010°54'510.4
2017-Nov-17 04:30N 54°47' E 010°52'611.3
2017-Nov-17 04:01N 54°52' E 010°52'510.7
2017-Nov-17 03:30N 54°57' E 010°57'510.1
2017-Nov-17 03:00N 55°01' E 011°01'510.6
2017-Nov-17 02:30N 55°07' E 011°02'510.1
2017-Nov-17 02:00N 55°11' E 011°05'64 2.1
2017-Nov-15 19:58N 56°09' E 010°13'0 0.7
2017-Nov-15 19:30N 56°09' E 010°14'3 4.9
2017-Nov-15 18:56N 56°08' E 010°19'57 8.5
2017-Nov-15 12:14N 55°17' E 011°04'311.6
2017-Nov-15 11:57N 55°14' E 011°06'510.7
2017-Nov-15 11:29N 55°09' E 011°04'511.4
2017-Nov-15 11:00N 55°04' E 011°02'611.1
2017-Nov-15 10:30N 54°59' E 011°00'510.9
2017-Nov-15 10:00N 54°54' E 010°54'611.4
2017-Nov-15 09:30N 54°49' E 010°53'611.5
2017-Nov-15 09:01N 54°43' E 010°53'510.6
2017-Nov-15 08:30N 54°39' E 010°47'510.4
2017-Nov-15 08:00N 54°35' E 010°41'32 4.0
2017-Nov-14 23:54N 54°22' E 009°50'3 6.7
2017-Nov-14 23:31N 54°21' E 009°46'0 0.7
2017-Nov-14 23:00N 54°21' E 009°46'3 5.4
2017-Nov-14 22:30N 54°19' E 009°43'4 7.4
2017-Nov-14 22:01N 54°16' E 009°38'4 7.6
2017-Nov-14 21:31N 54°13' E 009°35'4 8.1
2017-Nov-14 21:01N 54°11' E 009°29'4 8.9
2017-Nov-14 20:31N 54°09' E 009°22'5 8.7
2017-Nov-14 19:58N 54°05' E 009°19'4 9.4
2017-Nov-14 19:30N 54°00' E 009°18'5 9.2
2017-Nov-14 19:00N 53°56' E 009°13'4 8.0
2017-Nov-14 18:30N 53°54' E 009°09'0 0.2
2017-Nov-14 18:00N 53°54' E 009°09'2 4.2
2017-Nov-14 17:30N 53°53' E 009°05'4 9.0
2017-Nov-14 17:00N 53°51' E 008°58'4 8.7
2017-Nov-14 16:31N 53°50' E 008°51'4 7.8
2017-Nov-14 16:00N 53°51' E 008°45'4 7.2
2017-Nov-14 15:30N 53°54' E 008°41'4 7.5
2017-Nov-14 15:00N 53°57' E 008°37'4 8.6
2017-Nov-14 14:30N 53°58' E 008°30'4 8.1
2017-Nov-14 14:00N 53°59' E 008°23'611.2
2017-Nov-14 13:29N 53°59' E 008°13'15010.2
2017-Nov-13 22:48N 52°59' E 004°22'310.2
2017-Nov-13 22:30N 52°57' E 004°19'5 9.8
2017-Nov-13 22:01N 52°53' E 004°15'133 6.7
2017-Nov-13 02:00N 51°11' E 001°56'2 4.0
2017-Nov-13 01:30N 51°10' E 001°53'2 4.3
2017-Nov-13 01:00N 51°09' E 001°50'2 3.9
2017-Nov-13 00:30N 51°07' E 001°48'2 4.2
2017-Nov-13 00:00N 51°06' E 001°46'2 3.8
2017-Nov-12 23:30N 51°04' E 001°44'2 4.1
2017-Nov-12 23:00N 51°03' E 001°42'2 4.4
2017-Nov-12 22:30N 51°01' E 001°39'3 5.0
2017-Nov-12 21:59N 50°59' E 001°37'3 5.4
2017-Nov-12 21:30N 50°57' E 001°34'3 5.3
2017-Nov-12 21:00N 50°55' E 001°31'111 8.8
2017-Nov-12 08:22N 50°08' W 001°07'3 8.1
2017-Nov-12 07:59N 50°07' W 001°12'4 8.4
2017-Nov-12 07:30N 50°06' W 001°18'4 8.5
2017-Nov-12 07:00N 50°05' W 001°24'5 9.1
2017-Nov-12 06:30N 50°03' W 001°31'5 9.4
2017-Nov-12 06:00N 50°02' W 001°38'5 9.9
2017-Nov-12 05:30N 50°01' W 001°45'510.5
2017-Nov-12 05:00N 49°59' W 001°53'611.3
2017-Nov-12 04:30N 49°58' W 002°02'9910.8
2017-Nov-11 19:19N 49°17' W 004°21'29 8.9
2017-Nov-11 16:08N 49°02' W 004°58'3 8.8
2017-Nov-11 15:48N 49°01' W 005°02'7 8.6
2017-Nov-11 15:00N 48°57' W 005°11'14 8.7
2017-Nov-11 13:23N 48°49' W 005°29'6 8.7
2017-Nov-11 12:45N 48°46' W 005°35'3 8.2
2017-Nov-11 12:26N 48°43' W 005°37'4 8.2
2017-Nov-11 11:53N 48°39' W 005°40'4 8.4
2017-Nov-11 11:28N 48°36' W 005°42'8 5.8
2017-Nov-11 10:01N 48°28' W 005°39'0 6.1
2017-Nov-11 09:57N 48°28' W 005°39'6 6.1
2017-Nov-11 08:53N 48°22' W 005°34'2 6.3
2017-Nov-11 08:30N 48°20' W 005°32'3 6.2
2017-Nov-11 08:00N 48°17' W 005°30'3 6.7
2017-Nov-11 07:30N 48°14' W 005°28'4 6.9
2017-Nov-11 06:56N 48°11' W 005°24'3 7.2
2017-Nov-11 06:30N 48°08' W 005°22'4 7.3
2017-Nov-11 05:59N 48°05' W 005°19'4 7.5
2017-Nov-11 05:30N 48°02' W 005°17'4 7.3
2017-Nov-11 05:00N 47°59' W 005°13'4 7.2
2017-Nov-11 04:28N 47°56' W 005°09'3 7.2
2017-Nov-11 04:00N 47°54' W 005°05'4 7.3
2017-Nov-11 03:30N 47°52' W 005°01'4 7.5
2017-Nov-11 03:00N 47°49' W 004°57'4 7.3
2017-Nov-11 02:31N 47°47' W 004°53'4 7.3
2017-Nov-11 02:00N 47°45' W 004°49'4 7.3
2017-Nov-11 01:30N 47°42' W 004°44'4 7.5
2017-Nov-11 01:00N 47°40' W 004°40'4 7.3
2017-Nov-11 00:29N 47°37' W 004°36'4 7.5
2017-Nov-11 00:00N 47°35' W 004°32'14 7.4
2017-Nov-10 22:03N 47°26' W 004°15'160 8.3
2017-Nov-10 02:42N 45°37' W 001°24'2 8.7
2017-Nov-10 02:29N 45°36' W 001°22'511.4
2017-Nov-10 02:00N 45°39' W 001°16'611.9
2017-Nov-10 01:30N 45°38' W 001°07'612.6
2017-Nov-10 01:00N 45°33' W 001°02'713.7
2017-Nov-10 00:30N 45°28' W 000°55'713.2
2017-Nov-09 23:59N 45°23' W 000°49'2 0.1
2017-Nov-08 16:54N 45°21' W 000°48'614.9
2017-Nov-08 16:30N 45°26' W 000°53'714.8
2017-Nov-08 16:01N 45°32' W 000°60'712.9
2017-Nov-08 15:30N 45°37' W 001°05'612.2
2017-Nov-08 15:00N 45°39' W 001°13'611.7
2017-Nov-08 14:30N 45°37' W 001°21'4 6.7
2017-Nov-08 13:51N 45°36' W 001°27'2 4.1
2017-Nov-08 13:27N 45°34' W 001°26'1 2.7
2017-Nov-08 12:59N 45°33' W 001°27'3 2.9
2017-Nov-08 11:52N 45°30' W 001°25'  
Track history (hours):
 
Tides and Currents Weather Stations Pressure Air Temp Water Temp Dewpoint Dewpoint Depression Visibility Wind Speed Wind Dir Waves Ship Positions

Bockoe

Last reported at 2017-Nov-18 07:21 UTC. Time now 2017-Nov-21 00:54 UTC.
Position N 55°13' E 018°45'.

Length 107 m; draft 4 m.

Type: Ship. MMSI: 212389000.

Date/timePositionNaut miles runAvg speedWind from/ knotsBaromVisibWave heightAir tempDewpointWater temp
2017-Nov-18 07:21N 55°13' E 018°45'411.0
2017-Nov-18 07:00N 55°11' E 018°39'611.0
2017-Nov-18 06:30N 55°09' E 018°30'511.1
2017-Nov-18 06:00N 55°07' E 018°21'611.2
2017-Nov-18 05:28N 55°04' E 018°12'21010.7
2017-Nov-17 09:46N 54°27' E 012°13'311.4
2017-Nov-17 09:30N 54°25' E 012°10'510.7
2017-Nov-17 09:00N 54°25' E 012°01'1510.6
2017-Nov-17 07:36N 54°28' E 011°35'110.8
2017-Nov-17 07:30N 54°28' E 011°34'510.7
2017-Nov-17 07:00N 54°31' E 011°26'510.9
2017-Nov-17 06:30N 54°33' E 011°17'510.7
2017-Nov-17 06:00N 54°35' E 011°09'510.6
2017-Nov-17 05:30N 54°38' E 011°01'510.8
2017-Nov-17 05:00N 54°41' E 010°54'510.4
2017-Nov-17 04:30N 54°47' E 010°52'611.3
2017-Nov-17 04:01N 54°52' E 010°52'510.7
2017-Nov-17 03:30N 54°57' E 010°57'510.1
2017-Nov-17 03:00N 55°01' E 011°01'510.6
2017-Nov-17 02:30N 55°07' E 011°02'510.1
2017-Nov-17 02:00N 55°11' E 011°05'64 2.1
2017-Nov-15 19:58N 56°09' E 010°13'0 0.7
2017-Nov-15 19:30N 56°09' E 010°14'3 4.9
2017-Nov-15 18:56N 56°08' E 010°19'57 8.5
2017-Nov-15 12:14N 55°17' E 011°04'311.6
2017-Nov-15 11:57N 55°14' E 011°06'510.7
2017-Nov-15 11:29N 55°09' E 011°04'511.4
2017-Nov-15 11:00N 55°04' E 011°02'611.1
2017-Nov-15 10:30N 54°59' E 011°00'510.9
2017-Nov-15 10:00N 54°54' E 010°54'611.4
2017-Nov-15 09:30N 54°49' E 010°53'611.5
2017-Nov-15 09:01N 54°43' E 010°53'510.6
2017-Nov-15 08:30N 54°39' E 010°47'510.4
2017-Nov-15 08:00N 54°35' E 010°41'32 4.0
2017-Nov-14 23:54N 54°22' E 009°50'3 6.7
2017-Nov-14 23:31N 54°21' E 009°46'0 0.7
2017-Nov-14 23:00N 54°21' E 009°46'3 5.4
2017-Nov-14 22:30N 54°19' E 009°43'4 7.4
2017-Nov-14 22:01N 54°16' E 009°38'4 7.6
2017-Nov-14 21:31N 54°13' E 009°35'4 8.1
2017-Nov-14 21:01N 54°11' E 009°29'4 8.9
2017-Nov-14 20:31N 54°09' E 009°22'5 8.7
2017-Nov-14 19:58N 54°05' E 009°19'4 9.4
2017-Nov-14 19:30N 54°00' E 009°18'5 9.2
2017-Nov-14 19:00N 53°56' E 009°13'4 8.0
2017-Nov-14 18:30N 53°54' E 009°09'0 0.2
2017-Nov-14 18:00N 53°54' E 009°09'2 4.2
2017-Nov-14 17:30N 53°53' E 009°05'4 9.0
2017-Nov-14 17:00N 53°51' E 008°58'4 8.7
2017-Nov-14 16:31N 53°50' E 008°51'4 7.8
2017-Nov-14 16:00N 53°51' E 008°45'4 7.2
2017-Nov-14 15:30N 53°54' E 008°41'4 7.5
2017-Nov-14 15:00N 53°57' E 008°37'4 8.6
2017-Nov-14 14:30N 53°58' E 008°30'4 8.1
2017-Nov-14 14:00N 53°59' E 008°23'611.2
2017-Nov-14 13:29N 53°59' E 008°13'15010.2
2017-Nov-13 22:48N 52°59' E 004°22'310.2
2017-Nov-13 22:30N 52°57' E 004°19'5 9.8
2017-Nov-13 22:01N 52°53' E 004°15'133 6.7
2017-Nov-13 02:00N 51°11' E 001°56'2 4.0
2017-Nov-13 01:30N 51°10' E 001°53'2 4.3
2017-Nov-13 01:00N 51°09' E 001°50'2 3.9
2017-Nov-13 00:30N 51°07' E 001°48'2 4.2
2017-Nov-13 00:00N 51°06' E 001°46'2 3.8
2017-Nov-12 23:30N 51°04' E 001°44'2 4.1
2017-Nov-12 23:00N 51°03' E 001°42'2 4.4
2017-Nov-12 22:30N 51°01' E 001°39'3 5.0
2017-Nov-12 21:59N 50°59' E 001°37'3 5.4
2017-Nov-12 21:30N 50°57' E 001°34'3 5.3
2017-Nov-12 21:00N 50°55' E 001°31'111 8.8
2017-Nov-12 08:22N 50°08' W 001°07'3 8.1
2017-Nov-12 07:59N 50°07' W 001°12'4 8.4
2017-Nov-12 07:30N 50°06' W 001°18'4 8.5
2017-Nov-12 07:00N 50°05' W 001°24'5 9.1
2017-Nov-12 06:30N 50°03' W 001°31'5 9.4
2017-Nov-12 06:00N 50°02' W 001°38'5 9.9
2017-Nov-12 05:30N 50°01' W 001°45'510.5
2017-Nov-12 05:00N 49°59' W 001°53'611.3
2017-Nov-12 04:30N 49°58' W 002°02'9910.8
2017-Nov-11 19:19N 49°17' W 004°21'29 8.9
2017-Nov-11 16:08N 49°02' W 004°58'3 8.8
2017-Nov-11 15:48N 49°01' W 005°02'7 8.6
2017-Nov-11 15:00N 48°57' W 005°11'14 8.7
2017-Nov-11 13:23N 48°49' W 005°29'6 8.7
2017-Nov-11 12:45N 48°46' W 005°35'3 8.2
2017-Nov-11 12:26N 48°43' W 005°37'4 8.2
2017-Nov-11 11:53N 48°39' W 005°40'4 8.4
2017-Nov-11 11:28N 48°36' W 005°42'8 5.8
2017-Nov-11 10:01N 48°28' W 005°39'0 6.1
2017-Nov-11 09:57N 48°28' W 005°39'6 6.1
2017-Nov-11 08:53N 48°22' W 005°34'2 6.3
2017-Nov-11 08:30N 48°20' W 005°32'3 6.2
2017-Nov-11 08:00N 48°17' W 005°30'3 6.7
2017-Nov-11 07:30N 48°14' W 005°28'4 6.9
2017-Nov-11 06:56N 48°11' W 005°24'3 7.2
2017-Nov-11 06:30N 48°08' W 005°22'4 7.3
2017-Nov-11 05:59N 48°05' W 005°19'4 7.5
2017-Nov-11 05:30N 48°02' W 005°17'4 7.3
2017-Nov-11 05:00N 47°59' W 005°13'4 7.2
2017-Nov-11 04:28N 47°56' W 005°09'3 7.2
2017-Nov-11 04:00N 47°54' W 005°05'4 7.3
2017-Nov-11 03:30N 47°52' W 005°01'4 7.5
2017-Nov-11 03:00N 47°49' W 004°57'4 7.3
2017-Nov-11 02:31N 47°47' W 004°53'4 7.3
2017-Nov-11 02:00N 47°45' W 004°49'4 7.3
2017-Nov-11 01:30N 47°42' W 004°44'4 7.5
2017-Nov-11 01:00N 47°40' W 004°40'4 7.3
2017-Nov-11 00:29N 47°37' W 004°36'4 7.5
2017-Nov-11 00:00N 47°35' W 004°32'14 7.4
2017-Nov-10 22:03N 47°26' W 004°15'160 8.3
2017-Nov-10 02:42N 45°37' W 001°24'2 8.7
2017-Nov-10 02:29N 45°36' W 001°22'511.4
2017-Nov-10 02:00N 45°39' W 001°16'611.9
2017-Nov-10 01:30N 45°38' W 001°07'612.6
2017-Nov-10 01:00N 45°33' W 001°02'713.7
2017-Nov-10 00:30N 45°28' W 000°55'713.2
2017-Nov-09 23:59N 45°23' W 000°49'2 0.1
2017-Nov-08 16:54N 45°21' W 000°48'614.9
2017-Nov-08 16:30N 45°26' W 000°53'714.8
2017-Nov-08 16:01N 45°32' W 000°60'712.9
2017-Nov-08 15:30N 45°37' W 001°05'612.2
2017-Nov-08 15:00N 45°39' W 001°13'611.7
2017-Nov-08 14:30N 45°37' W 001°21'4 6.7
2017-Nov-08 13:51N 45°36' W 001°27'2 4.1
2017-Nov-08 13:27N 45°34' W 001°26'1 2.7
2017-Nov-08 12:59N 45°33' W 001°27'3 2.9
2017-Nov-08 11:52N 45°30' W 001°25'  

Dump ship's entire track history